Impacts TAF Board
For situational awareness. Not to be used for flight planning purposes.
IDs:

KSEA - Seattle-Tacoma Intl, WA, US

Issued at 0532 UTC 24 Mar 2019
Updated at 0734 UTC 24 Mar 2019
Potential Impact None Slight Moderate High
Time0653Z 24/08Z 24/09Z 24/10Z 24/11Z 24/12Z 24/13Z 24/14Z 24/15Z 24/16Z 24/17Z 24/18Z 24/19Z 24/20Z>>
Type OBS PRVL PRVL PRVL PRVL PRVL PRVL PRVL PRVL PRVL PRVL PRVL PRVL PRVL
VIS 10 >6 >6 >6 >6 >6 >6 >6 >6 >6 >6 >6 >6 >6
CIG -- -- 100 100 100 30 30 30 30 30 30 30 30 --
Cover SCT SCT BKN BKN BKN BKN BKN BKN BKN BKN BKN BKN BKN SCT
FltCat VFR VFR VFR VFR VFR MVFR MVFR MVFR MVFR MVFR MVFR MVFR MVFR VFR
WX -- -- -- -- -- -- -- -- -- -- -- -- -- --
WDir 350 350 220 220 220 200 200 200 200 200 200 220 220 250
WSpd 6 5 5 5 5 4 4 4 4 4 4 5 5 4
WGst -- -- -- -- -- -- -- -- -- -- -- -- -- --
Raw TAF
KSEA 240532Z 2406/2512 35005KT P6SM FEW040 SCT070
  FM240900 22005KT P6SM FEW030 BKN100
  FM241200 20004KT P6SM BKN030 BKN100
  FM241800 22005KT P6SM BKN030
  FM242000 25004KT P6SM SCT030 SCT200
  FM250300 05004KT P6SM SCT250


Raw METAR
KSEA 240653Z 35006KT 10SM SCT200 09/04 A3020 RMK AO2 SLP234 T00890039
KSEA 240553Z 32003KT 10SM FEW070 SCT200 09/04 A3020 RMK AO2 SLP234 T00890044 10150 20089 50008
KSEA 240453Z 36005KT 10SM SCT070 10/04 A3020 RMK AO2 SLP234 T01000039

METAR Board
Radar Display
Forecast Discussion
For situational awareness. Not to be used for flight planning purposes.